Laramie, WY

8:30 AM MST on February 06, 2016 (GMT -0700)
Laramie Regional | | Change Station
CLOSE
Current Station
Airport
Location: Laramie,
Elevation: 7270 ft
Nearby Weather Stations

Elev 7270 ft 41.32 °N, 105.67 °W | Updated 37 minutes ago

Clear
Clear
21 °F
Feels Like 7 °F
N
16
Wind Variable Wind from SSW

Today
High -- | Low -- °F
--% Chance of Precip.
Yesterday
High -- | Low -- °F
Precip. -- in
Pressure 30.39 in
Visibility 10.0 miles
Clouds Clear
Windchill 7 °F
Dew Point 11 °F
Humidity 65%
Rainfall 0.00 in
Snow Depth Not available.
7:09 AM 5:24 PM
Waning Crescent, 5% visible
METAR KLAR 061453Z AUTO 20014KT 10SM CLR M06/M12 A3023 RMK AO2 PK WND 22027/1419 SLP289 T10611117 55001
Pressure 30.39 in
Visibility 10.0 miles
Clouds Clear
Windchill 7 °F
Dew Point 11 °F
Humidity 65%
Rainfall 0.00 in
Snow Depth Not available.
7:09 AM 5:24 PM
Waning Crescent, 5% visible
METAR KLAR 061453Z AUTO 20014KT 10SM CLR M06/M12 A3023 RMK AO2 PK WND 22027/1419 SLP289 T10611117 55001

10-Day Weather Forecast

Almanac

Astronomy

Feb. 06, 2016 Rise Set
Actual Time
Civil Twilight
Nautical Twilight
Astronomical Twilight
Moon
Length of Visible Light
Length of Day
Tomorrow will be .
, % of the Moon is Illuminated

Today's Extremes

State Highs State Lows

Community

WunderPhotos

Upload Photos

1,890,987 photos uploaded!

WunderBlog® & News

Nearby

Air Quality

  Air Quality AQ Index Pollutant
Not available.

Snow Depth

Station Depth Elevation

Earthquake Activity

City Distance Mag. Time & Date
Minimum magnitude displayed is 2.5.

Coastal Water Temperatures

Place Temperature

Stations

Nearby Weather Stations

Station Location Temp. Windchill Dew Point Humidity Wind Precip. Elev Updated Type
                   

Watches & Warnings

There are currently no watches in effect.